Time;durP1;ratioP1;P1;durP2;ratioP2;P2;SDS_P1;SDS_P2;PMS_P1;PMS_P2;Temp;Humidity;BMP_temperature;BMP_pressure;BME280_temperature;BME280_humidity;BME280_pressure;Samples;Min_cycle;Max_cycle;Signal;HPM_P1;HPM_P2
2022/11/05 00:09:38;;;;;;;7.97;1.98;;;7.20;99.90;;;;;;5063604;28;20056;-72
2022/11/05 00:17:36;;;;;;;10.90;2.20;;;7.10;99.90;;;;;;5062573;28;20048;-72
2022/11/05 00:20:02;;;;;;;8.80;2.00;;;7.00;99.90;;;;;;5065668;28;20488;-73
2022/11/05 00:25:12;;;;;;;11.65;2.22;;;7.00;99.90;;;;;;5062972;28;20166;-73
2022/11/05 00:27:39;;;;;;;8.85;2.15;;;6.90;99.90;;;;;;5065755;28;20116;-73
2022/11/05 00:30:06;;;;;;;6.80;2.13;;;6.90;99.90;;;;;;5060203;28;20079;-73
2022/11/05 00:32:32;;;;;;;6.70;1.85;;;6.90;99.90;;;;;;5066047;28;20098;-72
2022/11/05 00:34:58;;;;;;;6.63;1.92;;;6.90;99.90;;;;;;5063106;28;20229;-72
2022/11/05 00:37:26;;;;;;;12.23;2.40;;;6.90;99.90;;;;;;5062811;28;20199;-72
2022/11/05 00:39:52;;;;;;;9.23;2.88;;;6.80;99.90;;;;;;5064554;28;20075;-73
2022/11/05 00:45:04;;;;;;;6.55;1.92;;;6.80;99.90;;;;;;5058678;28;20044;-73
2022/11/05 00:50:17;;;;;;;7.45;2.13;;;6.70;99.90;;;;;;5060955;28;20033;-73
2022/11/05 00:52:55;;;;;;;4.88;2.10;;;6.60;99.90;;;;;;5060862;28;20807;-73
2022/11/05 00:55:42;;;;;;;8.77;2.33;;;6.60;99.90;;;;;;5063819;28;20068;-73
2022/11/05 00:58:10;;;;;;;7.15;2.78;;;6.60;99.90;;;;;;5061386;28;20526;-73
2022/11/05 01:00:38;;;;;;;7.97;2.00;;;6.60;99.90;;;;;;5064304;28;20353;-73
2022/11/05 01:03:07;;;;;;;11.35;2.13;;;6.60;99.90;;;;;;5064702;28;20594;-73
2022/11/05 01:05:36;;;;;;;8.30;2.33;;;6.50;99.90;;;;;;5061599;28;20044;-73
2022/11/05 01:08:02;;;;;;;6.28;1.88;;;6.60;99.90;;;;;;5060007;28;20048;-73
2022/11/05 01:10:28;;;;;;;7.78;2.00;;;6.60;99.90;;;;;;5064650;28;20044;-73
2022/11/05 01:12:54;;;;;;;6.93;1.80;;;6.50;99.90;;;;;;5061174;28;20051;-72
2022/11/05 01:15:20;;;;;;;10.57;1.85;;;6.50;99.90;;;;;;5063283;28;20384;-72
2022/11/05 01:17:46;;;;;;;6.40;1.50;;;6.50;99.90;;;;;;5067053;28;20043;-72
2022/11/05 01:20:12;;;;;;;8.60;1.80;;;6.50;99.90;;;;;;5063431;28;20494;-72
2022/11/05 01:22:38;;;;;;;9.35;1.90;;;6.50;99.90;;;;;;5058557;28;20055;-72
2022/11/05 01:25:06;;;;;;;7.50;1.85;;;6.60;99.90;;;;;;5065653;28;20064;-73
2022/11/05 01:27:31;;;;;;;7.15;1.88;;;6.60;99.90;;;;;;5059255;28;20053;-72
2022/11/05 01:29:57;;;;;;;7.70;2.05;;;6.70;99.90;;;;;;5061157;28;20420;-73
2022/11/05 01:32:23;;;;;;;5.25;1.70;;;6.80;99.90;;;;;;5063823;28;20036;-72
2022/11/05 01:34:48;;;;;;;4.88;1.77;;;6.70;99.90;;;;;;5064418;28;20392;-72
2022/11/05 01:37:14;;;;;;;5.68;1.70;;;6.80;99.90;;;;;;5062697;28;20069;-72
2022/11/05 01:39:40;;;;;;;5.28;2.20;;;6.80;99.90;;;;;;5061547;28;20040;-72
2022/11/05 01:42:21;;;;;;;6.93;1.70;;;6.80;99.90;;;;;;5063389;28;20037;-72
2022/11/05 01:44:53;;;;;;;8.15;2.00;;;6.70;99.90;;;;;;5064351;28;20040;-71
2022/11/05 01:47:33;;;;;;;5.88;1.75;;;6.80;99.90;;;;;;5063625;28;20041;-73
2022/11/05 01:50:12;;;;;;;6.38;1.70;;;6.70;99.90;;;;;;5062010;28;20040;-72
2022/11/05 01:52:38;;;;;;;5.97;1.40;;;6.70;99.90;;;;;;5062798;28;20041;-72
2022/11/05 01:55:06;;;;;;;4.43;1.40;;;6.70;99.90;;;;;;5059508;28;20049;-73
2022/11/05 01:57:32;;;;;;;9.48;1.60;;;6.70;99.90;;;;;;5062880;28;20045;-72
2022/11/05 02:00:00;;;;;;;6.53;1.88;;;6.70;99.90;;;;;;5065755;28;20526;-72
2022/11/05 02:02:26;;;;;;;8.48;2.10;;;6.60;99.90;;;;;;5061926;28;20067;-73
2022/11/05 02:04:58;;;;;;;6.03;2.10;;;6.80;99.90;;;;;;5066208;28;20036;-72
2022/11/05 02:07:26;;;;;;;8.63;2.00;;;6.80;99.90;;;;;;5058639;28;20488;-72
2022/11/05 02:10:01;;;;;;;6.22;1.98;;;6.90;99.90;;;;;;5063226;28;20295;-72
2022/11/05 02:12:28;;;;;;;6.88;1.63;;;6.90;99.90;;;;;;5060972;28;21165;-72
2022/11/05 02:14:57;;;;;;;5.38;1.73;;;6.90;99.90;;;;;;5064205;28;20041;-72
2022/11/05 02:17:29;;;;;;;6.55;2.00;;;7.00;99.90;;;;;;5063647;28;20090;-73
2022/11/05 02:20:37;;;;;;;4.90;1.30;;;7.10;99.90;;;;;;5061628;28;20036;-72
2022/11/05 02:23:33;;;;;;;9.25;2.10;;;7.20;99.90;;;;;;5062991;28;20078;-72
2022/11/05 02:26:35;;;;;;;8.82;1.67;;;7.40;99.90;;;;;;5053662;28;20064;-72
2022/11/05 02:29:26;;;;;;;5.25;1.40;;;7.50;99.90;;;;;;5063864;28;20032;-73
2022/11/05 02:32:11;;;;;;;4.40;1.23;;;7.50;99.90;;;;;;5064526;28;20037;-72
2022/11/05 02:34:57;;;;;;;4.85;1.30;;;7.60;99.90;;;;;;5059504;28;20052;-72
2022/11/05 02:37:26;;;;;;;4.53;1.30;;;7.60;99.90;;;;;;5065607;28;20125;-73
2022/11/05 02:40:04;;;;;;;7.60;1.30;;;7.70;99.90;;;;;;5067430;28;20547;-72
2022/11/05 02:42:48;;;;;;;7.00;1.40;;;7.80;99.90;;;;;;5068449;28;20496;-72
2022/11/05 02:45:16;;;;;;;6.72;1.25;;;7.80;99.90;;;;;;5065968;28;20036;-73
2022/11/05 02:48:24;;;;;;;4.75;1.20;;;7.80;99.90;;;;;;5067875;28;20080;-73
2022/11/05 02:50:50;;;;;;;6.13;1.15;;;7.90;99.90;;;;;;5053599;28;20041;-72
2022/11/05 02:53:43;;;;;;;7.72;1.17;;;7.90;99.90;;;;;;5061543;28;20515;-72
2022/11/05 02:56:32;;;;;;;2.85;1.20;;;7.90;99.90;;;;;;5059253;28;20036;-73
2022/11/05 02:58:58;;;;;;;5.30;1.10;;;7.90;99.90;;;;;;5067753;28;20044;-72
2022/11/05 03:01:24;;;;;;;2.88;0.90;;;7.90;99.90;;;;;;5061608;28;20029;-72
2022/11/05 03:04:05;;;;;;;3.75;0.95;;;7.90;99.90;;;;;;5069532;28;20369;-72
2022/11/05 03:06:49;;;;;;;4.18;1.25;;;7.90;99.90;;;;;;5058753;28;20492;-72
2022/11/05 03:09:21;;;;;;;6.85;1.27;;;7.90;99.90;;;;;;5051520;28;20059;-72
2022/11/05 03:12:20;;;;;;;2.97;1.08;;;7.90;99.90;;;;;;5061904;28;20131;-72
2022/11/05 03:14:48;;;;;;;5.80;1.02;;;7.90;99.90;;;;;;5067061;28;20032;-71
2022/11/05 03:17:39;;;;;;;6.30;1.20;;;7.90;99.90;;;;;;5058837;28;20063;-72
2022/11/05 03:20:32;;;;;;;7.43;2.35;;;7.90;99.90;;;;;;5067778;28;20044;-71
2022/11/05 03:23:25;;;;;;;5.80;1.33;;;7.90;99.90;;;;;;5064409;28;20495;-71
2022/11/05 03:26:03;;;;;;;2.97;1.20;;;8.10;99.90;;;;;;5061085;28;20085;-71
2022/11/05 03:28:34;;;;;;;8.30;2.03;;;8.00;99.90;;;;;;5063819;28;20036;-71
2022/11/05 03:31:01;;;;;;;7.47;2.13;;;8.00;99.90;;;;;;5063196;28;20084;-71
2022/11/05 03:33:30;;;;;;;5.35;1.48;;;8.10;99.90;;;;;;5060699;28;20072;-71
2022/11/05 03:36:00;;;;;;;5.80;1.80;;;7.90;99.90;;;;;;5064257;28;20040;-72
2022/11/05 03:38:33;;;;;;;4.57;1.13;;;8.00;99.90;;;;;;5064925;28;20114;-71
2022/11/05 03:41:03;;;;;;;8.65;1.58;;;7.90;99.90;;;;;;5063775;28;20033;-71
2022/11/05 03:43:35;;;;;;;5.72;1.60;;;7.90;99.90;;;;;;5057179;28;20075;-72
2022/11/05 03:46:22;;;;;;;7.93;1.50;;;7.80;99.90;;;;;;5061187;28;20048;-72
2022/11/05 03:48:54;;;;;;;12.55;1.70;;;7.80;99.90;;;;;;5060579;28;20140;-72
2022/11/05 03:51:35;;;;;;;8.40;1.95;;;7.80;99.90;;;;;;5061411;28;20040;-71
2022/11/05 03:54:03;;;;;;;11.00;1.77;;;7.80;99.90;;;;;;5063502;28;20218;-71
2022/11/05 03:56:35;;;;;;;7.28;2.70;;;7.80;99.90;;;;;;5065157;28;20036;-71
2022/11/05 03:59:02;;;;;;;13.63;3.35;;;7.80;99.90;;;;;;5066289;28;20049;-71
2022/11/05 04:01:29;;;;;;;6.53;1.77;;;7.80;99.90;;;;;;5056370;28;20044;-71
2022/11/05 04:03:55;;;;;;;6.35;1.58;;;7.80;99.90;;;;;;5053598;28;20057;-71
2022/11/05 04:14:37;;;;;;;9.25;2.55;;;7.90;99.90;;;;;;5055743;28;20341;-71
2022/11/05 04:17:05;;;;;;;6.15;2.53;;;8.00;99.90;;;;;;5065609;28;20078;-71
2022/11/05 04:25:02;;;;;;;8.07;2.25;;;8.10;99.90;;;;;;5060140;28;20612;-72
2022/11/05 04:27:28;;;;;;;8.73;2.47;;;8.10;99.90;;;;;;5063865;28;20045;-71
2022/11/05 04:32:38;;;;;;;11.13;2.45;;;8.10;99.90;;;;;;5058241;28;20129;-72
2022/11/05 04:35:04;;;;;;;7.22;2.25;;;8.20;99.90;;;;;;5061209;28;20408;-72
2022/11/05 04:37:29;;;;;;;7.10;2.25;;;8.20;99.90;;;;;;5062039;28;20060;-72
2022/11/05 04:39:55;;;;;;;5.40;2.33;;;8.20;99.90;;;;;;5062857;28;20468;-71
2022/11/05 04:42:20;;;;;;;6.88;2.17;;;8.20;99.90;;;;;;5061779;28;20131;-72
2022/11/05 04:44:46;;;;;;;12.27;2.88;;;8.30;99.90;;;;;;5063750;28;20037;-71
2022/11/05 04:47:12;;;;;;;9.70;2.17;;;8.30;99.90;;;;;;5059862;28;20086;-72
2022/11/05 04:49:37;;;;;;;6.45;2.10;;;8.40;99.90;;;;;;5061312;28;20051;-72
2022/11/05 04:52:03;;;;;;;6.72;1.77;;;8.30;99.90;;;;;;5065021;28;20041;-72
2022/11/05 04:54:29;;;;;;;7.35;2.10;;;8.40;99.90;;;;;;5063388;28;20286;-73
2022/11/05 04:56:55;;;;;;;8.30;2.05;;;8.40;99.90;;;;;;5062124;28;20036;-73
2022/11/05 04:59:20;;;;;;;4.97;1.67;;;8.50;99.90;;;;;;5062235;28;20756;-73
2022/11/05 05:01:50;;;;;;;4.85;1.50;;;8.40;99.90;;;;;;5061230;28;20040;-73
2022/11/05 05:04:16;;;;;;;6.28;1.58;;;8.50;99.90;;;;;;5056947;28;20047;-73
2022/11/05 05:06:42;;;;;;;6.88;1.90;;;8.40;99.90;;;;;;5064448;28;20044;-73
2022/11/05 05:09:07;;;;;;;5.32;1.92;;;8.40;99.90;;;;;;5062951;28;20058;-73
2022/11/05 05:11:33;;;;;;;6.90;1.58;;;8.50;99.90;;;;;;5065553;28;20033;-73
2022/11/05 05:13:58;;;;;;;4.57;1.50;;;8.30;99.90;;;;;;5065875;28;20101;-73
2022/11/05 05:16:25;;;;;;;6.18;1.58;;;8.30;99.90;;;;;;5061568;28;20503;-72
2022/11/05 05:18:51;;;;;;;5.03;2.17;;;8.20;99.90;;;;;;5063028;28;20527;-70
2022/11/05 05:21:37;;;;;;;7.93;2.50;;;8.30;99.90;;;;;;5062541;28;20032;-71
2022/11/05 05:24:07;;;;;;;7.35;2.25;;;8.20;99.90;;;;;;5059348;28;20056;-71
2022/11/05 05:26:35;;;;;;;5.70;1.60;;;8.10;99.90;;;;;;5061741;28;20068;-70
2022/11/05 05:29:01;;;;;;;5.68;1.88;;;8.20;99.90;;;;;;5063915;28;20049;-72
2022/11/05 05:31:26;;;;;;;5.28;1.50;;;8.10;99.90;;;;;;5061634;28;20048;-71
2022/11/05 05:33:53;;;;;;;4.55;1.73;;;8.00;99.90;;;;;;5062506;28;20119;-71
2022/11/05 05:36:22;;;;;;;5.28;1.48;;;7.90;99.90;;;;;;5063883;28;20500;-72
2022/11/05 05:38:48;;;;;;;7.18;2.05;;;8.00;99.90;;;;;;5060278;28;20049;-71
2022/11/05 05:41:14;;;;;;;8.18;1.92;;;7.90;99.90;;;;;;5062120;28;20036;-71
2022/11/05 05:43:40;;;;;;;8.32;1.50;;;7.80;99.90;;;;;;5056008;28;20075;-71
2022/11/05 05:46:08;;;;;;;5.28;1.70;;;7.80;99.90;;;;;;5061795;28;20063;-71
2022/11/05 05:48:34;;;;;;;3.83;1.55;;;7.70;99.90;;;;;;5064774;28;20047;-71
2022/11/05 05:51:08;;;;;;;9.50;1.42;;;7.60;99.90;;;;;;5065783;28;20127;-72
2022/11/05 05:53:34;;;;;;;3.47;1.40;;;7.60;99.90;;;;;;5057289;28;20048;-72
2022/11/05 05:56:00;;;;;;;6.55;1.80;;;7.70;99.90;;;;;;5060050;28;20116;-72
2022/11/05 05:58:30;;;;;;;5.93;2.05;;;7.60;99.90;;;;;;5065177;28;20036;-72
2022/11/05 06:01:00;;;;;;;6.85;1.70;;;7.50;99.90;;;;;;5057560;28;20036;-72
2022/11/05 06:03:26;;;;;;;5.20;1.70;;;7.50;99.90;;;;;;5063535;28;20048;-72
2022/11/05 06:05:51;;;;;;;2.78;1.50;;;7.50;99.90;;;;;;5066777;28;20138;-72
2022/11/05 06:08:17;;;;;;;4.10;1.92;;;7.40;99.90;;;;;;5064430;28;20041;-72
2022/11/05 06:10:50;;;;;;;4.07;1.70;;;7.30;99.90;;;;;;5064690;28;20072;-71
2022/11/05 06:13:15;;;;;;;5.53;2.30;;;7.40;99.90;;;;;;5064095;28;20063;-73
2022/11/05 06:15:41;;;;;;;5.80;2.53;;;7.50;99.90;;;;;;5066308;28;20048;-73
2022/11/05 06:18:07;;;;;;;8.93;2.72;;;7.50;99.90;;;;;;5065368;28;20159;-73
2022/11/05 06:20:32;;;;;;;7.07;2.50;;;7.50;99.90;;;;;;5055024;28;20410;-71
2022/11/05 06:22:58;;;;;;;5.00;2.72;;;7.50;99.90;;;;;;5064156;28;20036;-72
2022/11/05 06:25:25;;;;;;;7.22;2.50;;;7.60;99.90;;;;;;5065725;28;20045;-73
2022/11/05 06:27:51;;;;;;;7.97;2.80;;;7.60;99.90;;;;;;5062934;28;20040;-73
2022/11/05 06:30:17;;;;;;;6.97;2.80;;;7.50;99.90;;;;;;5063320;28;20737;-73
2022/11/05 06:32:43;;;;;;;5.10;2.85;;;7.60;99.90;;;;;;5066261;28;20065;-73
2022/11/05 06:35:10;;;;;;;5.53;2.75;;;7.50;99.90;;;;;;5064915;28;20041;-72
2022/11/05 06:37:35;;;;;;;7.97;3.00;;;7.40;99.90;;;;;;5065898;28;20165;-72
2022/11/05 06:40:01;;;;;;;6.65;3.13;;;7.50;99.90;;;;;;5066387;28;20143;-73
2022/11/05 06:42:27;;;;;;;4.85;2.80;;;7.40;99.90;;;;;;5064038;28;20415;-72
2022/11/05 06:44:52;;;;;;;4.72;2.80;;;7.40;99.90;;;;;;5068329;28;20401;-72
2022/11/05 06:47:19;;;;;;;4.32;3.08;;;7.30;99.90;;;;;;5068021;28;20573;-71
2022/11/05 06:49:45;;;;;;;6.55;3.85;;;7.30;99.90;;;;;;5063911;28;20041;-71
2022/11/05 06:52:12;;;;;;;7.60;3.97;;;7.30;99.90;;;;;;5064075;28;20047;-71
2022/11/05 06:54:39;;;;;;;8.15;4.03;;;7.30;99.90;;;;;;5069313;28;20106;-71
2022/11/05 06:57:08;;;;;;;11.45;5.22;;;7.30;99.90;;;;;;5062851;28;20486;-72
2022/11/05 06:59:34;;;;;;;8.18;3.90;;;7.30;99.90;;;;;;5061452;28;20072;-72
2022/11/05 07:02:00;;;;;;;5.38;3.80;;;7.30;99.90;;;;;;5064762;28;20040;-72
2022/11/05 07:04:25;;;;;;;7.60;3.45;;;7.30;99.90;;;;;;5061546;28;20507;-72
2022/11/05 07:06:51;;;;;;;8.50;3.80;;;7.30;99.90;;;;;;5062843;28;22264;-72
2022/11/05 07:09:16;;;;;;;5.65;3.42;;;7.30;99.90;;;;;;5059630;28;20032;-72
2022/11/05 07:11:42;;;;;;;7.72;3.63;;;7.40;99.90;;;;;;5064961;28;20076;-72
2022/11/05 07:14:07;;;;;;;7.93;3.78;;;7.40;99.90;;;;;;5065318;28;20074;-72
2022/11/05 07:16:33;;;;;;;7.05;3.25;;;7.60;99.90;;;;;;5066952;28;20101;-71
2022/11/05 07:18:59;;;;;;;9.50;2.80;;;7.70;99.90;;;;;;5061476;28;20076;-71
2022/11/05 07:21:24;;;;;;;8.98;3.20;;;7.80;99.90;;;;;;5067507;28;20490;-72
2022/11/05 07:23:50;;;;;;;5.93;2.75;;;7.90;99.90;;;;;;5066808;28;20459;-72
2022/11/05 07:26:16;;;;;;;7.05;3.05;;;7.90;99.90;;;;;;5055368;28;20500;-72
2022/11/05 07:28:41;;;;;;;6.45;2.95;;;7.90;99.90;;;;;;5068744;28;20377;-72
2022/11/05 07:31:07;;;;;;;5.47;3.38;;;8.00;99.90;;;;;;5063946;28;20110;-72
2022/11/05 07:33:32;;;;;;;7.55;3.17;;;8.10;99.90;;;;;;5058304;28;20545;-72
2022/11/05 07:35:58;;;;;;;9.02;3.22;;;8.20;99.90;;;;;;5062862;28;20052;-72
2022/11/05 07:38:24;;;;;;;7.70;2.70;;;8.20;99.90;;;;;;5064762;28;20479;-71
2022/11/05 07:40:50;;;;;;;6.03;2.72;;;8.20;99.90;;;;;;5059993;28;20076;-71
2022/11/05 07:43:15;;;;;;;4.53;2.80;;;8.40;99.90;;;;;;5056206;28;20033;-72
2022/11/05 07:45:41;;;;;;;7.97;3.05;;;8.40;99.90;;;;;;5059436;28;20049;-72
2022/11/05 07:48:06;;;;;;;7.72;3.05;;;8.60;99.90;;;;;;5066949;28;20059;-71
2022/11/05 07:50:35;;;;;;;5.93;2.80;;;8.70;99.90;;;;;;5064211;28;20041;-71
2022/11/05 07:53:11;;;;;;;6.88;3.30;;;8.80;99.90;;;;;;5058594;28;20032;-71
2022/11/05 07:55:39;;;;;;;9.50;3.03;;;8.90;99.90;;;;;;5079635;28;20073;-71
2022/11/05 07:58:05;;;;;;;7.95;3.30;;;9.00;99.90;;;;;;5061056;28;20055;-72
2022/11/05 08:00:33;;;;;;;20.35;6.30;;;9.10;99.90;;;;;;5060404;28;20041;-71
2022/11/05 08:03:04;;;;;;;9.02;3.22;;;9.20;99.90;;;;;;5064726;28;20117;-71
2022/11/05 08:05:31;;;;;;;10.23;3.45;;;9.20;99.90;;;;;;5061038;28;20373;-72
2022/11/05 08:07:57;;;;;;;11.80;3.80;;;9.30;99.90;;;;;;5062920;28;20515;-72
2022/11/05 08:10:23;;;;;;;9.82;3.38;;;9.30;99.90;;;;;;5057610;28;20119;-72
2022/11/05 08:12:51;;;;;;;9.18;3.15;;;9.40;99.90;;;;;;5049118;28;20041;-73
2022/11/05 08:15:17;;;;;;;8.05;3.40;;;9.40;99.90;;;;;;5065175;28;20159;-73
2022/11/05 08:17:42;;;;;;;7.75;3.22;;;9.40;99.90;;;;;;5063288;28;20562;-73
2022/11/05 08:20:09;;;;;;;11.82;3.50;;;9.40;99.90;;;;;;5061593;28;20064;-73
2022/11/05 08:22:35;;;;;;;8.90;3.20;;;9.40;99.90;;;;;;5062599;28;20044;-73
2022/11/05 08:25:00;;;;;;;10.43;3.70;;;9.50;99.90;;;;;;5050640;28;20503;-71
2022/11/05 08:27:29;;;;;;;10.57;3.95;;;9.50;99.90;;;;;;5048120;28;20052;-70
2022/11/05 08:29:55;;;;;;;11.88;4.07;;;9.40;99.90;;;;;;5056498;28;20043;-71
2022/11/05 08:32:20;;;;;;;6.78;3.60;;;9.40;99.90;;;;;;5061283;28;20078;-71
2022/11/05 08:34:46;;;;;;;9.00;3.58;;;9.40;99.90;;;;;;5058429;28;20128;-71
2022/11/05 08:37:11;;;;;;;8.63;3.85;;;9.40;99.90;;;;;;5063728;28;20283;-71
2022/11/05 08:39:37;;;;;;;10.48;4.38;;;9.40;99.90;;;;;;5056053;28;20055;-71
2022/11/05 08:42:03;;;;;;;11.75;5.22;;;9.30;99.90;;;;;;5057161;28;20044;-71
2022/11/05 08:44:28;;;;;;;9.80;5.07;;;9.30;99.90;;;;;;5057476;28;20056;-71
2022/11/05 08:46:54;;;;;;;11.05;4.57;;;9.30;99.90;;;;;;5061133;28;20155;-71
2022/11/05 08:49:20;;;;;;;11.93;4.10;;;9.30;99.90;;;;;;5062933;28;20074;-71
2022/11/05 08:51:46;;;;;;;7.07;3.40;;;9.40;99.90;;;;;;5064021;28;20090;-71
2022/11/05 08:54:12;;;;;;;14.15;3.90;;;9.40;99.90;;;;;;5064384;28;20068;-71
2022/11/05 08:56:38;;;;;;;7.50;3.70;;;9.50;99.90;;;;;;5063205;28;20397;-71
2022/11/05 08:59:04;;;;;;;6.45;2.97;;;9.60;99.90;;;;;;5058970;28;20071;-71
2022/11/05 09:01:31;;;;;;;10.02;3.30;;;9.80;99.90;;;;;;5054201;28;20064;-71
2022/11/05 09:03:57;;;;;;;12.82;3.45;;;9.90;99.90;;;;;;5058969;28;20632;-72
2022/11/05 09:06:22;;;;;;;9.15;3.60;;;10.10;99.90;;;;;;5066643;28;20480;-72
2022/11/05 09:08:51;;;;;;;9.30;3.55;;;10.20;99.90;;;;;;5059489;28;20118;-72
2022/11/05 09:11:17;;;;;;;9.85;3.30;;;10.40;99.90;;;;;;5063235;28;20033;-71
2022/11/05 09:13:43;;;;;;;14.40;3.22;;;10.50;99.90;;;;;;5063813;28;20060;-71
2022/11/05 09:16:20;;;;;;;7.68;2.75;;;10.60;99.90;;;;;;5063974;28;20040;-72
2022/11/05 09:18:46;;;;;;;11.32;3.13;;;10.80;99.90;;;;;;5062053;28;20431;-72
2022/11/05 09:21:12;;;;;;;10.35;2.40;;;10.70;99.90;;;;;;5053263;28;20039;-71
2022/11/05 09:23:38;;;;;;;7.38;2.53;;;10.80;99.90;;;;;;5064937;28;20040;-72
2022/11/05 09:26:04;;;;;;;10.48;2.63;;;10.80;99.90;;;;;;5064501;28;20041;-72
2022/11/05 09:28:31;;;;;;;5.38;2.85;;;10.90;99.90;;;;;;5058194;28;20048;-72
2022/11/05 09:30:57;;;;;;;7.85;2.30;;;10.80;99.90;;;;;;5062802;28;20071;-72
2022/11/05 09:33:25;;;;;;;7.53;2.65;;;10.90;99.90;;;;;;5066397;28;20044;-72
2022/11/05 09:35:52;;;;;;;8.57;2.38;;;10.90;99.90;;;;;;5066135;28;20580;-72
2022/11/05 09:38:17;;;;;;;13.30;2.42;;;10.80;99.90;;;;;;5063568;28;20067;-71
2022/11/05 09:41:07;;;;;;;7.07;2.97;;;10.90;99.90;;;;;;5063029;28;20048;-72
2022/11/05 09:44:02;;;;;;;10.43;2.92;;;10.80;99.90;;;;;;5057550;28;20462;-71
2022/11/05 09:46:39;;;;;;;7.03;2.63;;;10.80;99.90;;;;;;5059819;28;20480;-72
2022/11/05 09:49:11;;;;;;;6.03;2.45;;;10.80;99.90;;;;;;5063917;28;20068;-72
2022/11/05 09:51:40;;;;;;;6.68;2.42;;;10.80;99.90;;;;;;5059434;28;20035;-71
2022/11/05 09:54:06;;;;;;;7.95;2.47;;;10.80;99.90;;;;;;5057085;28;20420;-72
2022/11/05 09:56:35;;;;;;;8.30;2.55;;;10.80;99.90;;;;;;5061007;28;20048;-71
2022/11/05 09:59:38;;;;;;;12.35;2.72;;;10.90;99.90;;;;;;5057562;28;20064;-72
2022/11/05 10:02:17;;;;;;;10.15;2.83;;;10.90;99.90;;;;;;5059845;28;20047;-71
2022/11/05 10:04:45;;;;;;;8.23;2.38;;;11.00;99.90;;;;;;5055800;28;20670;-71
2022/11/05 10:07:15;;;;;;;11.23;2.35;;;11.10;99.90;;;;;;5055148;28;20067;-71
2022/11/05 10:09:46;;;;;;;8.25;2.22;;;11.30;99.90;;;;;;5056312;28;20878;-71
2022/11/05 10:12:33;;;;;;;10.18;2.72;;;11.40;99.90;;;;;;5057373;28;20147;-71
2022/11/05 10:15:11;;;;;;;6.72;2.85;;;11.50;99.90;;;;;;5055608;28;20048;-70
2022/11/05 10:17:41;;;;;;;6.75;2.40;;;11.60;99.90;;;;;;5063270;28;20087;-71
2022/11/05 10:20:32;;;;;;;8.60;2.60;;;11.70;99.90;;;;;;5061171;28;20049;-71
2022/11/05 10:23:10;;;;;;;9.00;2.50;;;11.80;99.90;;;;;;5055949;28;20397;-71
2022/11/05 10:25:39;;;;;;;5.90;2.30;;;11.80;99.90;;;;;;5060372;28;20036;-71
2022/11/05 10:28:06;;;;;;;6.43;2.50;;;11.90;99.90;;;;;;5058247;28;20853;-71
2022/11/05 10:30:33;;;;;;;8.65;2.80;;;11.80;99.90;;;;;;5062940;28;20229;-73
2022/11/05 10:33:03;;;;;;;6.88;2.30;;;11.80;99.90;;;;;;5062639;28;20063;-71
2022/11/05 10:35:34;;;;;;;7.30;2.88;;;11.90;99.90;;;;;;5055050;28;20138;-71
2022/11/05 10:38:01;;;;;;;12.90;3.38;;;11.90;99.90;;;;;;5060144;28;20051;-71
2022/11/05 10:40:36;;;;;;;9.40;3.08;;;11.80;99.90;;;;;;5064297;28;20072;-72
2022/11/05 10:43:37;;;;;;;5.45;2.40;;;11.80;99.90;;;;;;5063115;28;20050;-72
2022/11/05 10:46:18;;;;;;;8.32;2.10;;;11.80;99.90;;;;;;5063151;28;20512;-72
2022/11/05 10:48:58;;;;;;;8.05;2.45;;;11.80;99.90;;;;;;5064947;28;20049;-72
2022/11/05 10:51:24;;;;;;;13.10;2.55;;;11.90;99.90;;;;;;5067941;28;20041;-71
2022/11/05 10:53:54;;;;;;;7.82;2.20;;;11.90;99.90;;;;;;5058944;28;20629;-72
2022/11/05 10:56:47;;;;;;;6.53;2.72;;;11.90;99.90;;;;;;5065536;28;20033;-71
2022/11/05 10:59:27;;;;;;;6.57;2.08;;;11.90;99.90;;;;;;5058495;28;20060;-72
2022/11/05 11:02:11;;;;;;;8.10;1.88;;;11.90;99.90;;;;;;5067474;28;20087;-71
2022/11/05 11:04:36;;;;;;;7.40;1.83;;;12.00;99.90;;;;;;5066718;28;20652;-71
2022/11/05 11:07:03;;;;;;;8.55;2.30;;;11.90;99.90;;;;;;5065888;28;20115;-72
2022/11/05 11:09:31;;;;;;;10.30;2.67;;;11.90;99.90;;;;;;5067065;28;20041;-72
2022/11/05 11:12:15;;;;;;;6.35;2.67;;;12.00;99.90;;;;;;5065916;28;20121;-72
2022/11/05 11:14:41;;;;;;;13.68;2.92;;;12.00;99.90;;;;;;5062901;28;20040;-71
2022/11/05 11:17:29;;;;;;;13.48;3.28;;;12.00;99.90;;;;;;5065731;28;20071;-72
2022/11/05 11:20:16;;;;;;;11.48;2.92;;;12.00;99.90;;;;;;5065291;28;20427;-71
2022/11/05 11:22:59;;;;;;;9.60;1.90;;;11.90;99.90;;;;;;5069022;28;20090;-72
2022/11/05 11:25:38;;;;;;;8.18;1.88;;;11.90;99.90;;;;;;5067050;28;20051;-72
2022/11/05 11:28:04;;;;;;;12.75;3.63;;;11.90;99.90;;;;;;5062973;28;20049;-72
2022/11/05 11:30:31;;;;;;;9.20;2.20;;;11.80;99.90;;;;;;5066502;28;20525;-71
2022/11/05 11:33:10;;;;;;;5.50;2.00;;;11.80;99.90;;;;;;5066378;28;20041;-71
2022/11/05 11:35:37;;;;;;;5.22;2.40;;;11.70;99.90;;;;;;5061757;28;20056;-72
2022/11/05 11:38:04;;;;;;;5.28;2.22;;;11.60;99.90;;;;;;5062055;28;20048;-72
2022/11/05 11:40:36;;;;;;;6.35;1.58;;;11.50;99.90;;;;;;5062599;28;20037;-72
2022/11/05 11:43:19;;;;;;;3.15;1.40;;;11.40;99.90;;;;;;5060744;28;20077;-72
2022/11/05 11:45:48;;;;;;;2.63;1.30;;;11.30;99.90;;;;;;5065781;28;20071;-72
2022/11/05 11:48:26;;;;;;;2.90;1.05;;;11.20;99.90;;;;;;5066395;28;20029;-73
2022/11/05 11:50:52;;;;;;;2.67;1.17;;;11.10;99.90;;;;;;5067762;28;20049;-72
2022/11/05 11:53:20;;;;;;;5.45;1.77;;;11.10;99.90;;;;;;5067347;28;20040;-72
2022/11/05 11:56:11;;;;;;;9.20;1.88;;;11.00;99.90;;;;;;5064712;28;20044;-72
2022/11/05 11:58:43;;;;;;;8.25;2.58;;;11.00;99.90;;;;;;5060558;28;20047;-72
2022/11/05 12:01:27;;;;;;;9.23;1.80;;;11.00;99.90;;;;;;5058144;28;20045;-71
2022/11/05 12:04:02;;;;;;;3.38;1.35;;;11.10;99.90;;;;;;5059180;28;20399;-72
2022/11/05 12:06:45;;;;;;;4.43;1.50;;;11.00;99.90;;;;;;5063261;28;20105;-73
2022/11/05 12:09:14;;;;;;;5.75;1.90;;;11.10;99.90;;;;;;5060403;28;20059;-71
2022/11/05 12:12:08;;;;;;;5.15;1.95;;;11.00;99.90;;;;;;5063589;28;20066;-72
2022/11/05 12:14:49;;;;;;;6.75;2.05;;;11.00;99.90;;;;;;5066230;28;20045;-71
2022/11/05 12:17:14;;;;;;;5.30;2.00;;;11.00;99.90;;;;;;5059150;28;20055;-72
2022/11/05 12:19:50;;;;;;;5.35;2.22;;;11.00;99.90;;;;;;5052834;28;20059;-71
2022/11/05 12:22:53;;;;;;;5.05;1.90;;;11.00;99.90;;;;;;5063975;28;20763;-71
2022/11/05 12:25:41;;;;;;;6.50;2.07;;;10.90;99.90;;;;;;5054595;28;20059;-72
2022/11/05 12:28:17;;;;;;;5.95;2.28;;;10.90;99.90;;;;;;5060319;28;20412;-72
2022/11/05 12:31:07;;;;;;;9.85;2.95;;;11.00;99.90;;;;;;5060645;28;20086;-71
2022/11/05 12:33:52;;;;;;;7.78;2.40;;;10.90;99.90;;;;;;5062208;28;20052;-71
2022/11/05 12:36:35;;;;;;;9.25;3.13;;;10.90;99.90;;;;;;5047695;28;20044;-72
2022/11/05 12:39:31;;;;;;;6.95;2.72;;;10.90;99.90;;;;;;5055830;28;20467;-72
2022/11/05 12:42:06;;;;;;;7.53;2.40;;;10.90;99.90;;;;;;5061666;28;20048;-72
2022/11/05 12:44:45;;;;;;;7.80;2.83;;;10.90;99.90;;;;;;5062871;28;20548;-72
2022/11/05 12:47:14;;;;;;;11.95;2.63;;;10.90;99.90;;;;;;5060837;28;20068;-71
2022/11/05 12:49:52;;;;;;;8.02;3.00;;;11.00;99.90;;;;;;5054043;28;20650;-71
2022/11/05 12:52:43;;;;;;;7.47;2.40;;;11.10;99.90;;;;;;5062055;28;20131;-71
2022/11/05 12:55:17;;;;;;;7.65;2.90;;;11.20;99.90;;;;;;5052417;28;20056;-73
2022/11/05 12:57:46;;;;;;;8.23;2.90;;;11.30;99.90;;;;;;5056811;28;20082;-71
2022/11/05 13:00:18;;;;;;;9.02;3.47;;;11.40;99.90;;;;;;5055112;28;20055;-72
2022/11/05 13:03:08;;;;;;;10.68;4.28;;;11.60;99.90;;;;;;5063265;28;20055;-72
2022/11/05 13:05:42;;;;;;;9.88;4.18;;;11.70;99.90;;;;;;5059747;28;20123;-72
2022/11/05 13:08:16;;;;;;;13.50;4.53;;;11.80;99.90;;;;;;5057425;28;20449;-72
2022/11/05 13:10:52;;;;;;;8.75;3.58;;;11.80;99.90;;;;;;5064036;28;20070;-72
2022/11/05 13:13:39;;;;;;;9.10;4.18;;;11.90;99.90;;;;;;5059363;28;20166;-73
2022/11/05 13:16:15;;;;;;;10.82;3.30;;;11.80;99.90;;;;;;5063068;28;20162;-72
2022/11/05 13:19:04;;;;;;;8.05;3.28;;;11.90;99.90;;;;;;5061765;28;20040;-72
2022/11/05 13:21:31;;;;;;;7.72;3.20;;;11.90;99.90;;;;;;5063483;28;20040;-73
2022/11/05 13:24:03;;;;;;;11.98;4.07;;;11.90;99.90;;;;;;5058173;28;20440;-74
2022/11/05 13:26:37;;;;;;;5.68;2.53;;;11.90;99.90;;;;;;5060187;28;20128;-72
2022/11/05 13:29:11;;;;;;;9.40;3.25;;;11.90;99.90;;;;;;5065153;28;20571;-73
2022/11/05 13:31:47;;;;;;;9.02;3.50;;;11.80;99.90;;;;;;5058905;28;20053;-72
2022/11/05 13:34:13;;;;;;;12.07;3.45;;;11.80;99.90;;;;;;5056789;28;20075;-73
2022/11/05 13:39:35;;;;;;;11.18;3.70;;;11.70;99.90;;;;;;5058575;28;20110;-72
2022/11/05 13:42:21;;;;;;;12.82;4.72;;;11.70;99.90;;;;;;5062286;28;20043;-74
2022/11/05 13:44:50;;;;;;;9.48;4.15;;;11.70;99.90;;;;;;5058429;28;20060;-73
2022/11/05 13:47:43;;;;;;;12.60;4.47;;;11.70;99.90;;;;;;5064214;28;20511;-73
2022/11/05 13:50:24;;;;;;;8.70;3.97;;;11.70;99.90;;;;;;5062848;28;20044;-73
2022/11/05 13:52:56;;;;;;;11.07;3.80;;;11.70;99.90;;;;;;5063823;28;20100;-72
2022/11/05 13:55:27;;;;;;;7.93;4.53;;;11.60;99.90;;;;;;5060603;28;20057;-72
2022/11/05 13:58:13;;;;;;;11.32;4.20;;;11.60;99.90;;;;;;5060531;28;20517;-72